This is the latest recevied weather packets stored in our database for station/object DB2AG-13. If no packets are shown the sender has not sent any weather packets the latest 10 day(s).
| Time | Temp. | Humidity | Pressure | Rain* | Wind** | Luminosity | Snow |
|---|---|---|---|---|---|---|---|
| 1787813580 | 25° C | 49% | 1018.4 hPa | - | - | - | - |
| 1787813038 | 24.44° C | 52% | 1018.6 hPa | - | - | - | - |
| 1787812503 | 23.33° C | 55% | 1018.5 hPa | - | - | - | - |
| 1787811963 | 22.22° C | 56% | 1018.5 hPa | - | - | - | - |
| 1787811424 | 21.67° C | 60% | 1018.9 hPa | - | - | - | - |
| 1787810880 | 20.56° C | 64% | 1018.7 hPa | - | - | - | - |
| 1787810339 | 19.44° C | 67% | 1018.8 hPa | - | - | - | - |
| 1787809255 | 16.11° C | 75% | 1018.9 hPa | - | - | - | - |
| 1787808711 | 14.44° C | 78% | 1019 hPa | - | - | - | - |
| 1787808171 | 12.78° C | 81% | 1018.9 hPa | - | - | - | - |
| 1787807626 | 11.11° C | 81% | 1018.6 hPa | - | - | - | - |
| 1787807086 | 11.11° C | 82% | 1018.8 hPa | - | - | - | - |
| 1787806001 | 10.56° C | 81% | 1018.8 hPa | - | - | - | - |
| 1787805458 | 10.56° C | 80% | 1018.8 hPa | - | - | - | - |
| 1787804371 | 10.56° C | 80% | 1018.6 hPa | - | - | - | - |
| 1787803828 | 10.56° C | 80% | 1018.7 hPa | - | - | - | - |
| 1787802737 | 11.11° C | 80% | 1018.7 hPa | - | - | - | - |
| 1787802193 | 11.11° C | 80% | 1018.7 hPa | - | - | - | - |
| 1787801649 | 11.11° C | 80% | 1018.8 hPa | - | - | - | - |
| 1787801109 | 11.11° C | 80% | 1018.9 hPa | - | - | - | - |
| 1787800569 | 11.11° C | 79% | 1018.9 hPa | - | - | - | - |
| 1787800026 | 11.11° C | 79% | 1018.9 hPa | - | - | - | - |
| 1787799486 | 11.11° C | 79% | 1019.1 hPa | - | - | - | - |
| 1787798947 | 11.11° C | 78% | 1019.1 hPa | - | - | - | - |
| 1787798405 | 11.11° C | 77% | 1019.3 hPa | - | - | - | - |
* Rain since midnight (hover to see other rain measurements)
** Current wind speed in m/s (hover to see current wind gust speed)